Time;durP1;ratioP1;P1;durP2;ratioP2;P2;SDS_P1;SDS_P2;PMS_P1;PMS_P2;Temp;Humidity;BMP_temperature;BMP_pressure;BME280_temperature;BME280_humidity;BME280_pressure;Samples;Min_cycle;Max_cycle;Signal;HPM_P1;HPM_P2
2022/01/02 00:02:12;;;;;;;0.60;0.53;;;;;;;8.78;100.00;95999.69;5134457;27;20509;-50
2022/01/02 00:04:48;;;;;;;0.90;0.90;;;;;;;8.69;100.00;96001.97;5134663;27;20487;-50
2022/01/02 00:07:18;;;;;;;0.60;0.60;;;;;;;8.76;100.00;96007.88;5134693;27;20415;-50
2022/01/02 00:09:51;;;;;;;0.30;0.27;;;;;;;9.18;100.00;95997.69;5134924;27;20430;-50
2022/01/02 00:12:24;;;;;;;1.27;0.50;;;;;;;9.32;100.00;95998.94;5134490;27;21102;-50
2022/01/02 00:14:55;;;;;;;0.47;0.47;;;;;;;8.94;100.00;96004.19;5134547;27;20470;-50
2022/01/02 00:17:24;;;;;;;0.40;0.30;;;;;;;8.81;100.00;96002.69;5134282;27;20495;-50
2022/01/02 00:19:55;;;;;;;0.40;0.30;;;;;;;8.91;100.00;95986.97;5134321;27;20483;-50
2022/01/02 00:22:30;;;;;;;0.40;0.30;;;;;;;8.97;100.00;95994.97;5134652;27;20834;-50
2022/01/02 00:25:00;;;;;;;0.40;0.30;;;;;;;8.91;100.00;95991.44;5134617;27;20414;-50
2022/01/02 00:27:29;;;;;;;0.30;0.20;;;;;;;8.81;100.00;95993.94;5134344;27;20965;-50
2022/01/02 00:29:58;;;;;;;0.40;0.40;;;;;;;8.07;100.00;95995.06;5134708;27;20507;-50
2022/01/02 00:32:28;;;;;;;0.40;0.30;;;;;;;7.91;100.00;95998.44;5134553;27;20491;-50
2022/01/02 00:35:00;;;;;;;0.40;0.40;;;;;;;7.73;100.00;95994.16;5134188;27;20510;-50
2022/01/02 00:37:29;;;;;;;0.73;0.73;;;;;;;7.71;100.00;96005.97;5134037;27;20509;-50
2022/01/02 00:39:57;;;;;;;0.30;0.20;;;;;;;7.60;100.00;95997.84;5134165;27;20511;-50
2022/01/02 00:42:30;;;;;;;0.97;0.30;;;;;;;7.60;100.00;95983.88;5134006;27;20946;-50
2022/01/02 00:45:03;;;;;;;0.30;0.30;;;;;;;7.73;100.00;95998.63;5133593;27;20415;-50
2022/01/02 00:47:43;;;;;;;0.30;0.20;;;;;;;7.62;100.00;95987.06;5133903;27;20452;-50
2022/01/02 00:50:19;;;;;;;0.70;0.67;;;;;;;7.59;100.00;95998.88;5133791;27;20434;-50
2022/01/02 00:52:48;;;;;;;0.30;0.27;;;;;;;7.64;100.00;96006.91;5133807;27;20478;-50
2022/01/02 00:55:20;;;;;;;0.30;0.20;;;;;;;7.82;100.00;96000.66;5133841;27;20458;-50
2022/01/02 00:57:57;;;;;;;0.50;0.40;;;;;;;8.13;100.00;96009.94;5133907;27;20473;-50
2022/01/02 01:00:26;;;;;;;0.30;0.20;;;;;;;8.37;100.00;96008.84;5133727;27;20897;-50
2022/01/02 01:02:57;;;;;;;0.30;0.30;;;;;;;8.55;100.00;96021.03;5133882;27;20865;-50
2022/01/02 01:05:30;;;;;;;0.30;0.20;;;;;;;8.34;100.00;95996.09;5133848;27;20432;-50
2022/01/02 01:08:00;;;;;;;0.60;0.60;;;;;;;8.74;100.00;96012.63;5133533;27;20477;-50
2022/01/02 01:10:31;;;;;;;0.50;0.37;;;;;;;8.65;100.00;96003.47;5133242;27;20705;-50
2022/01/02 01:13:01;;;;;;;0.30;0.20;;;;;;;8.31;100.00;96028.25;5133455;27;20502;-50
2022/01/02 01:15:31;;;;;;;0.40;0.40;;;;;;;8.02;100.00;96029.28;5133749;27;20533;-50
2022/01/02 01:18:01;;;;;;;0.30;0.20;;;;;;;7.52;100.00;96031.69;5133346;27;20917;-50
2022/01/02 01:20:34;;;;;;;0.30;0.20;;;;;;;7.58;100.00;96028.94;5133415;27;20422;-50
2022/01/02 01:23:03;;;;;;;0.77;0.77;;;;;;;7.40;100.00;96029.09;5133348;27;20517;-49
2022/01/02 01:25:31;;;;;;;0.40;0.30;;;;;;;7.28;100.00;96030.13;5133274;27;20918;-50
2022/01/02 01:28:01;;;;;;;1.67;1.57;;;;;;;7.04;100.00;96037.25;5133043;27;21009;-50
2022/01/02 01:30:30;;;;;;;0.50;0.47;;;;;;;7.40;100.00;96033.56;5133534;27;20438;-50
2022/01/02 01:32:58;;;;;;;0.53;0.50;;;;;;;7.44;100.00;96008.31;5133430;27;20426;-50
2022/01/02 01:35:26;;;;;;;0.30;0.30;;;;;;;7.44;100.00;96032.06;5133466;27;20513;-50
2022/01/02 01:37:56;;;;;;;0.37;0.30;;;;;;;7.24;100.00;96023.72;5133099;27;20509;-50
2022/01/02 01:40:25;;;;;;;0.30;0.20;;;;;;;7.07;100.00;96020.16;5132956;27;20997;-50
2022/01/02 01:42:58;;;;;;;0.40;0.30;;;;;;;7.20;100.00;96031.28;5133082;27;20466;-50
2022/01/02 01:45:30;;;;;;;0.30;0.20;;;;;;;7.35;100.00;96025.53;5132764;27;20454;-50
2022/01/02 01:48:01;;;;;;;0.50;0.50;;;;;;;7.39;100.00;96024.03;5133157;27;20426;-50
2022/01/02 01:50:32;;;;;;;0.40;0.30;;;;;;;7.73;100.00;96020.53;5133308;27;20426;-50
2022/01/02 01:53:02;;;;;;;0.50;0.50;;;;;;;8.07;100.00;96016.19;5132947;28;20514;-50
2022/01/02 01:55:32;;;;;;;0.30;0.20;;;;;;;8.23;100.00;96025.97;5132997;28;20426;-50
2022/01/02 01:58:01;;;;;;;0.40;0.30;;;;;;;8.36;100.00;96020.44;5133127;28;20454;-50
2022/01/02 02:00:33;;;;;;;0.30;0.20;;;;;;;8.10;100.00;96023.59;5132643;28;20890;-50
2022/01/02 02:03:02;;;;;;;0.40;0.40;;;;;;;8.25;100.00;96022.06;5132928;28;20468;-50
2022/01/02 02:05:31;;;;;;;0.30;0.20;;;;;;;8.29;100.00;96025.88;5133370;27;20414;-50
2022/01/02 02:08:00;;;;;;;0.30;0.20;;;;;;;8.37;100.00;96021.22;5132780;27;21023;-50
2022/01/02 02:10:35;;;;;;;0.83;0.80;;;;;;;8.20;100.00;96021.16;5132891;27;20425;-50
2022/01/02 02:13:05;;;;;;;0.30;0.30;;;;;;;8.13;100.00;95996.75;5131983;28;20426;-50
2022/01/02 02:15:34;;;;;;;0.30;0.30;;;;;;;7.54;100.00;96011.97;5132768;27;20438;-50
2022/01/02 02:18:03;;;;;;;0.30;0.20;;;;;;;7.46;100.00;96016.81;5133027;27;20519;-50
2022/01/02 02:20:36;;;;;;;0.30;0.20;;;;;;;7.80;100.00;96020.38;5132538;28;20509;-50
2022/01/02 02:23:05;;;;;;;0.40;0.27;;;;;;;7.89;100.00;96030.38;5134916;27;20901;-50
2022/01/02 02:25:35;;;;;;;0.30;0.20;;;;;;;7.87;100.00;96026.34;5136774;27;20947;-50
2022/01/02 02:28:05;;;;;;;0.30;0.20;;;;;;;7.52;100.00;96031.69;5136973;27;20518;-50
2022/01/02 02:30:36;;;;;;;0.30;0.20;;;;;;;7.68;100.00;96039.72;5136614;27;20466;-50
2022/01/02 02:33:07;;;;;;;0.40;0.40;;;;;;;7.84;100.00;96035.53;5136819;27;20418;-50
2022/01/02 02:35:39;;;;;;;0.30;0.20;;;;;;;7.71;100.00;96042.91;5136772;27;20493;-50
2022/01/02 02:38:09;;;;;;;0.30;0.20;;;;;;;7.75;100.00;96044.84;5136632;27;20463;-50
2022/01/02 02:40:38;;;;;;;0.30;0.20;;;;;;;7.35;100.00;96022.91;5136361;27;20461;-50
2022/01/02 02:43:20;;;;;;;0.37;0.30;;;;;;;7.65;100.00;96028.81;5136275;27;20527;-50
2022/01/02 02:51:29;;;;;;;0.50;0.50;;;;;;;7.31;100.00;96038.38;5136384;27;20438;-50
2022/01/02 02:53:57;;;;;;;0.30;0.20;;;;;;;7.45;100.00;96031.84;5136048;27;20513;-50
2022/01/02 02:56:29;;;;;;;0.37;0.30;;;;;;;7.67;100.00;96040.75;5136458;27;20513;-50
2022/01/02 02:58:59;;;;;;;0.30;0.20;;;;;;;7.40;100.00;96038.84;5135994;27;20966;-50
2022/01/02 03:01:29;;;;;;;0.40;0.30;;;;;;;7.36;100.00;96043.75;5135569;27;20513;-50
2022/01/02 03:03:57;;;;;;;0.30;0.20;;;;;;;6.43;100.00;95931.50;5136101;27;20430;-49
2022/01/02 03:06:28;;;;;;;0.30;0.20;;;;;;;7.26;100.00;96050.66;5135851;27;20430;-50
2022/01/02 03:09:02;;;;;;;0.40;0.30;;;;;;;7.38;100.00;96039.06;5136036;27;20501;-50
2022/01/02 03:11:31;;;;;;;0.30;0.20;;;;;;;7.57;100.00;96043.16;5136058;27;20479;-50
2022/01/02 03:13:59;;;;;;;0.30;0.30;;;;;;;7.66;100.00;96047.03;5135980;27;20517;-50
2022/01/02 03:16:27;;;;;;;0.30;0.20;;;;;;;7.69;100.00;96051.03;5135712;27;20458;-50
2022/01/02 03:18:56;;;;;;;0.47;0.47;;;;;;;7.57;100.00;96053.72;5135554;27;20431;-50
2022/01/02 03:21:24;;;;;;;0.30;0.20;;;;;;;7.26;100.00;96035.63;5135319;27;20458;-50
2022/01/02 03:23:54;;;;;;;0.40;0.40;;;;;;;7.49;100.00;96056.72;5135629;27;20518;-50
2022/01/02 03:26:23;;;;;;;0.30;0.20;;;;;;;7.19;100.00;96019.13;5135441;27;20918;-50
2022/01/02 03:28:51;;;;;;;0.30;0.20;;;;;;;7.58;100.00;96065.88;5135411;27;20475;-50
2022/01/02 03:31:20;;;;;;;0.50;0.30;;;;;;;7.45;100.00;96076.69;5135714;27;20471;-50
2022/01/02 03:33:49;;;;;;;0.30;0.30;;;;;;;7.26;100.00;96072.53;5135251;27;20502;-50
2022/01/02 03:36:18;;;;;;;0.30;0.20;;;;;;;7.22;100.00;96076.69;5135251;27;20467;-50
2022/01/02 03:38:47;;;;;;;0.40;0.30;;;;;;;6.77;100.00;96083.50;5135230;27;20853;-50
2022/01/02 03:41:16;;;;;;;0.30;0.20;;;;;;;6.54;100.00;96081.63;5135178;27;21013;-50
2022/01/02 03:43:46;;;;;;;0.40;0.30;;;;;;;6.65;100.00;96078.22;5135552;27;20819;-50
2022/01/02 03:46:14;;;;;;;0.40;0.40;;;;;;;6.54;100.00;96081.63;5135202;27;20443;-50
2022/01/02 03:48:43;;;;;;;0.30;0.20;;;;;;;6.72;100.00;96080.75;5135318;27;20495;-50
2022/01/02 03:51:11;;;;;;;0.30;0.30;;;;;;;6.89;100.00;96073.78;5134618;27;20513;-50
2022/01/02 03:53:40;;;;;;;0.40;0.33;;;;;;;7.09;100.00;96076.09;5134761;27;20914;-50
2022/01/02 03:56:08;;;;;;;0.40;0.33;;;;;;;7.26;100.00;96075.19;5134982;27;20422;-50
2022/01/02 03:58:38;;;;;;;0.87;0.87;;;;;;;6.18;100.00;96092.25;5135060;27;20439;-50
2022/01/02 04:01:06;;;;;;;0.63;0.63;;;;;;;6.17;100.00;96094.06;5134756;27;20517;-50
2022/01/02 04:03:35;;;;;;;0.40;0.40;;;;;;;5.59;100.00;96088.47;5134218;27;20435;-50
2022/01/02 04:06:03;;;;;;;0.30;0.20;;;;;;;5.44;100.00;96108.28;5134723;27;20509;-50
2022/01/02 04:08:32;;;;;;;0.47;0.40;;;;;;;5.99;100.00;96107.28;5134873;27;20507;-50
2022/01/02 04:11:00;;;;;;;0.40;0.40;;;;;;;6.40;100.00;96104.69;5134662;27;20534;-50
2022/01/02 04:13:29;;;;;;;0.40;0.30;;;;;;;6.70;100.00;96094.16;5135076;27;20427;-50
2022/01/02 04:15:59;;;;;;;0.30;0.20;;;;;;;6.55;100.00;96099.06;5134414;27;20454;-50
2022/01/02 04:18:27;;;;;;;0.30;0.20;;;;;;;6.24;100.00;96047.44;5134426;27;20468;-50
2022/01/02 04:20:56;;;;;;;0.30;0.20;;;;;;;6.62;100.00;96106.84;5134204;27;20531;-50
2022/01/02 04:23:24;;;;;;;1.03;1.03;;;;;;;6.50;100.00;96113.91;5134313;27;20902;-50
2022/01/02 04:25:52;;;;;;;1.53;1.43;;;;;;;6.31;100.00;96081.56;5133640;27;20950;-50
2022/01/02 04:28:21;;;;;;;0.30;0.20;;;;;;;6.49;100.00;96112.28;5133621;27;20938;-50
2022/01/02 04:30:49;;;;;;;1.03;1.03;;;;;;;6.40;100.00;96102.06;5134476;27;20451;-50
2022/01/02 04:33:19;;;;;;;0.30;0.20;;;;;;;6.62;100.00;96106.84;5134352;27;20427;-50
2022/01/02 04:35:48;;;;;;;0.30;0.20;;;;;;;6.35;100.00;96104.56;5134140;27;20911;-50
2022/01/02 04:38:16;;;;;;;0.93;0.57;;;;;;;6.20;100.00;96114.69;5134215;27;20521;-50
2022/01/02 04:40:45;;;;;;;0.30;0.20;;;;;;;6.14;100.00;96118.22;5134030;27;20502;-50
2022/01/02 04:43:13;;;;;;;0.77;0.77;;;;;;;5.84;100.00;96071.81;5134572;27;20516;-50
2022/01/02 04:45:41;;;;;;;0.30;0.30;;;;;;;6.40;100.00;96130.22;5133252;27;20483;-50
2022/01/02 04:48:10;;;;;;;0.40;0.40;;;;;;;6.59;100.00;96126.53;5133845;27;20423;-50
2022/01/02 04:50:40;;;;;;;0.57;0.57;;;;;;;6.01;100.00;96021.03;5133717;27;20962;-49
2022/01/02 04:53:08;;;;;;;0.83;0.83;;;;;;;6.59;100.00;96120.44;5134053;27;20470;-50
2022/01/02 04:55:37;;;;;;;0.30;0.20;;;;;;;6.57;100.00;96127.78;5133868;27;20518;-50
2022/01/02 04:58:05;;;;;;;0.43;0.30;;;;;;;6.22;100.00;96131.06;5133932;27;20449;-50
2022/01/02 05:00:34;;;;;;;0.40;0.30;;;;;;;6.49;100.00;96122.81;5133291;27;20497;-50
2022/01/02 05:03:02;;;;;;;0.30;0.20;;;;;;;5.71;100.00;96041.22;5133430;27;20973;-50
2022/01/02 05:05:31;;;;;;;0.40;0.30;;;;;;;5.91;100.00;96128.63;5133608;27;20778;-50
2022/01/02 05:08:01;;;;;;;0.40;0.40;;;;;;;6.10;100.00;96138.09;5133790;27;20510;-50
2022/01/02 05:10:29;;;;;;;0.30;0.20;;;;;;;6.20;100.00;96135.75;5133520;27;20937;-50
2022/01/02 05:12:58;;;;;;;0.40;0.30;;;;;;;6.15;100.00;96145.31;5133626;27;20492;-50
2022/01/02 05:15:26;;;;;;;0.63;0.63;;;;;;;6.23;100.00;96155.56;5133375;27;20481;-50
2022/01/02 05:17:55;;;;;;;0.73;0.73;;;;;;;6.28;100.00;96153.88;5133241;27;20426;-50
2022/01/02 05:20:23;;;;;;;0.30;0.20;;;;;;;6.25;100.00;96151.69;5133481;27;20600;-50
2022/01/02 05:22:52;;;;;;;1.27;1.27;;;;;;;5.84;100.00;96154.19;5133415;27;20433;-50
2022/01/02 05:25:22;;;;;;;0.40;0.40;;;;;;;5.34;100.00;96178.94;5133437;27;20458;-50
2022/01/02 05:27:51;;;;;;;0.60;0.60;;;;;;;5.03;100.00;96177.94;5133133;27;20427;-50
2022/01/02 05:30:19;;;;;;;0.30;0.20;;;;;;;5.46;100.00;96161.44;5132991;27;20462;-50
2022/01/02 05:32:47;;;;;;;0.30;0.20;;;;;;;5.69;100.00;96162.41;5133381;27;20498;-50
2022/01/02 05:35:16;;;;;;;0.93;0.93;;;;;;;5.82;100.00;96165.94;5133262;27;20513;-50
2022/01/02 05:37:44;;;;;;;0.30;0.30;;;;;;;6.01;100.00;96163.13;5133288;27;20498;-50
2022/01/02 05:40:13;;;;;;;10.80;0.40;;;;;;;5.83;100.00;96146.47;5133078;27;20465;-50
2022/01/02 05:42:42;;;;;;;0.50;0.50;;;;;;;5.56;100.00;96170.44;5132835;27;20984;-50
2022/01/02 05:45:11;;;;;;;0.40;0.40;;;;;;;5.61;100.00;96170.59;5132925;27;20510;-51
2022/01/02 05:47:40;;;;;;;0.40;0.30;;;;;;;5.23;100.00;96113.94;5132803;27;20426;-50
2022/01/02 05:50:09;;;;;;;0.63;0.63;;;;;;;5.81;100.00;96169.59;5133069;28;20453;-50
2022/01/02 05:52:37;;;;;;;0.30;0.30;;;;;;;6.10;100.00;96174.94;5132287;27;20961;-50
2022/01/02 05:55:07;;;;;;;0.40;0.30;;;;;;;5.34;100.00;96182.34;5132746;28;20522;-49
2022/01/02 05:57:35;;;;;;;0.40;0.40;;;;;;;5.36;100.00;96180.34;5133623;27;20447;-50
2022/01/02 06:00:08;;;;;;;0.37;0.30;;;;;;;5.69;100.00;96180.03;5137147;27;20875;-50
2022/01/02 06:02:37;;;;;;;0.30;0.20;;;;;;;5.76;100.00;96170.25;5136910;27;20480;-50
2022/01/02 06:05:06;;;;;;;0.30;0.20;;;;;;;5.79;100.00;96170.59;5136672;27;20522;-50
2022/01/02 06:07:35;;;;;;;0.40;0.30;;;;;;;5.71;100.00;96177.97;5137217;27;20426;-50
2022/01/02 06:10:05;;;;;;;1.47;0.60;;;;;;;5.43;100.00;96186.34;5137069;27;20877;-49
2022/01/02 06:12:34;;;;;;;0.40;0.40;;;;;;;5.76;100.00;96176.31;5136733;27;20427;-50
2022/01/02 06:15:03;;;;;;;0.70;0.60;;;;;;;6.02;100.00;96167.34;5136725;27;20462;-50
2022/01/02 06:17:33;;;;;;;1.03;0.70;;;;;;;6.12;100.00;96175.53;5137070;27;20505;-50
2022/01/02 06:20:01;;;;;;;1.00;1.00;;;;;;;5.88;100.00;96175.59;5135844;27;20431;-50
2022/01/02 06:22:30;;;;;;;1.50;0.83;;;;;;;6.49;100.00;96186.84;5136572;27;20470;-49
2022/01/02 06:24:58;;;;;;;4.63;2.00;;;;;;;6.89;100.00;96197.63;5136567;27;20509;-50
2022/01/02 06:27:26;;;;;;;0.50;0.50;;;;;;;7.32;100.00;96179.75;5136683;27;20458;-50
2022/01/02 06:29:55;;;;;;;1.07;1.07;;;;;;;7.74;100.00;96192.84;5136649;27;20501;-50
2022/01/02 06:32:23;;;;;;;2.20;0.70;;;;;;;7.75;100.00;96175.97;5136473;27;20498;-50
2022/01/02 06:34:53;;;;;;;0.90;0.90;;;;;;;7.82;100.00;96193.28;5136667;27;20843;-50
2022/01/02 06:37:21;;;;;;;3.17;2.97;;;;;;;6.90;100.00;96209.78;5136336;27;20450;-50
2022/01/02 06:39:50;;;;;;;1.67;1.67;;;;;;;6.47;100.00;96209.97;5136173;27;20490;-51
2022/01/02 06:42:18;;;;;;;3.10;2.90;;;;;;;6.39;100.00;96218.97;5136347;27;20466;-50
2022/01/02 06:44:47;;;;;;;4.13;2.20;;;;;;;6.26;100.00;96213.84;5136145;27;20521;-50
2022/01/02 06:47:15;;;;;;;1.60;1.53;;;;;;;6.42;100.00;96206.38;5136486;27;20523;-50
2022/01/02 06:49:48;;;;;;;1.73;1.70;;;;;;;7.59;100.00;96214.41;5135750;27;20477;-51
2022/01/02 06:52:18;;;;;;;0.60;0.60;;;;;;;8.17;100.00;96203.84;5136010;27;20470;-50
2022/01/02 06:54:46;;;;;;;1.70;1.60;;;;;;;8.79;100.00;96215.41;5135884;27;20430;-50
2022/01/02 06:57:14;;;;;;;1.67;1.57;;;;;;;9.08;100.00;96218.88;5135897;27;20505;-50
2022/01/02 06:59:43;;;;;;;4.30;4.00;;;;;;;9.31;100.00;96219.53;5136346;27;20541;-50
2022/01/02 07:02:11;;;;;;;1.33;1.27;;;;;;;9.54;100.00;96218.56;5135655;27;20935;-50
2022/01/02 07:04:40;;;;;;;4.30;3.80;;;;;;;9.91;100.00;96208.31;5135984;27;20426;-50
2022/01/02 07:07:09;;;;;;;1.23;1.23;;;;;;;10.06;98.55;96137.81;5135631;27;20479;-50
2022/01/02 07:09:39;;;;;;;2.33;2.20;;;;;;;10.41;97.00;96218.81;5135230;27;21009;-49
2022/01/02 07:12:08;;;;;;;1.53;1.43;;;;;;;10.66;93.28;96219.94;5135715;27;20418;-49
2022/01/02 07:14:36;;;;;;;2.73;1.60;;;;;;;10.85;91.81;96218.56;5135564;27;20461;-49
2022/01/02 07:17:05;;;;;;;1.40;1.40;;;;;;;11.14;90.65;96205.88;5134665;27;20514;-49
2022/01/02 07:19:33;;;;;;;0.60;0.60;;;;;;;11.49;84.29;96206.19;5135472;27;20494;-49
2022/01/02 07:22:02;;;;;;;1.93;1.83;;;;;;;12.18;82.84;96218.66;5135370;27;20509;-49
2022/01/02 07:24:30;;;;;;;0.43;0.40;;;;;;;12.36;75.23;96226.22;5135811;27;20458;-49
2022/01/02 07:27:00;;;;;;;3.00;2.90;;;;;;;12.01;74.58;96232.91;5135658;27;20451;-49
2022/01/02 07:29:28;;;;;;;1.23;1.23;;;;;;;12.17;75.53;96227.72;5135330;27;20490;-50
2022/01/02 07:31:57;;;;;;;0.50;0.50;;;;;;;11.16;79.05;96243.56;5135272;27;20430;-50
2022/01/02 07:34:25;;;;;;;0.83;0.83;;;;;;;11.41;82.00;96248.31;5135171;27;20418;-50
2022/01/02 07:36:54;;;;;;;0.60;0.60;;;;;;;12.07;77.73;96249.69;5135282;27;20510;-50
2022/01/02 07:39:23;;;;;;;0.70;0.70;;;;;;;13.59;67.38;96246.59;5135763;27;20448;-50
2022/01/02 07:41:51;;;;;;;0.67;0.67;;;;;;;14.65;60.28;96233.16;5134902;27;20501;-50
2022/01/02 07:44:21;;;;;;;0.40;0.40;;;;;;;13.89;61.67;96238.59;5135094;27;20938;-51
2022/01/02 07:46:50;;;;;;;0.60;0.60;;;;;;;14.17;62.49;96236.44;5135292;27;20482;-51
2022/01/02 07:49:18;;;;;;;3.30;1.80;;;;;;;13.69;65.48;96235.94;5134833;27;20965;-52
2022/01/02 07:51:47;;;;;;;0.90;0.90;;;;;;;13.83;62.85;96237.03;5133963;27;20465;-53
2022/01/02 07:54:15;;;;;;;0.93;0.83;;;;;;;12.95;65.46;96240.03;5135531;27;20495;-53
2022/01/02 07:56:44;;;;;;;1.50;1.40;;;;;;;13.38;69.49;96229.78;5135025;27;20426;-53
2022/01/02 07:59:13;;;;;;;7.50;1.07;;;;;;;13.80;64.20;96242.88;5134741;27;20462;-54
2022/01/02 08:01:43;;;;;;;5.90;1.37;;;;;;;13.08;66.38;96239.59;5134501;27;20534;-54
2022/01/02 08:04:11;;;;;;;5.60;0.70;;;;;;;14.21;63.39;96245.50;5132464;27;20474;-54
2022/01/02 08:06:41;;;;;;;2.13;1.57;;;;;;;13.72;64.04;96230.09;5131249;27;20494;-54
2022/01/02 08:09:09;;;;;;;1.10;1.00;;;;;;;14.71;62.46;96248.09;5130657;27;20422;-54
2022/01/02 08:11:37;;;;;;;2.57;2.27;;;;;;;15.41;58.11;96249.63;5130976;27;20509;-54
2022/01/02 08:14:16;;;;;;;1.70;1.60;;;;;;;16.54;53.26;96227.88;5130909;27;20819;-53
2022/01/02 08:16:46;;;;;;;1.17;1.17;;;;;;;16.38;51.19;96229.88;5131550;27;20839;-53
2022/01/02 08:19:15;;;;;;;9.13;4.80;;;;;;;16.42;52.65;96243.47;5132814;27;20466;-53
2022/01/02 08:21:43;;;;;;;3.03;1.47;;;;;;;16.55;52.43;96208.03;5132942;27;20943;-53
2022/01/02 08:24:12;;;;;;;3.90;2.93;;;;;;;17.11;50.60;96232.28;5134354;27;20414;-53
2022/01/02 08:26:41;;;;;;;1.33;1.23;;;;;;;17.30;50.34;96230.41;5134449;27;20446;-53
2022/01/02 08:29:09;;;;;;;3.43;3.13;;;;;;;17.16;48.89;96229.53;5134295;27;20470;-52
2022/01/02 08:31:37;;;;;;;4.60;1.70;;;;;;;16.79;48.99;96184.75;5134394;27;20447;-52
2022/01/02 08:34:07;;;;;;;2.40;1.27;;;;;;;16.82;50.13;96235.06;5133362;27;20446;-52
2022/01/02 08:36:36;;;;;;;2.13;2.03;;;;;;;17.12;50.26;96234.69;5133886;27;20447;-52
2022/01/02 08:39:04;;;;;;;3.37;1.97;;;;;;;17.68;47.65;96231.25;5133825;27;20442;-51
2022/01/02 08:41:33;;;;;;;3.53;1.27;;;;;;;18.17;45.65;96228.81;5133838;27;20466;-51
2022/01/02 08:44:01;;;;;;;1.53;1.43;;;;;;;19.06;45.49;96223.13;5133751;27;21072;-51
2022/01/02 08:46:29;;;;;;;0.50;0.50;;;;;;;20.25;41.68;96164.16;5133618;27;20415;-51
2022/01/02 08:48:58;;;;;;;2.57;2.47;;;;;;;20.41;41.30;96224.59;5133811;27;20406;-51
2022/01/02 08:51:28;;;;;;;1.33;1.30;;;;;;;19.44;43.48;96225.28;5133846;27;20446;-51
2022/01/02 08:53:56;;;;;;;0.53;0.40;;;;;;;19.58;42.08;96238.69;5133578;27;20514;-52
2022/01/02 08:56:25;;;;;;;1.70;1.60;;;;;;;19.48;41.85;96225.47;5133375;27;20435;-52
2022/01/02 08:58:53;;;;;;;0.87;0.87;;;;;;;19.48;42.51;96215.50;5133638;27;20454;-52
2022/01/02 09:01:21;;;;;;;1.07;1.07;;;;;;;19.34;41.73;96209.34;5133430;27;20477;-52
2022/01/02 09:03:50;;;;;;;2.57;2.37;;;;;;;19.69;41.74;96193.50;5133229;27;20989;-52
2022/01/02 09:06:19;;;;;;;1.10;0.73;;;;;;;20.54;39.75;96204.03;5133513;27;20819;-52
2022/01/02 09:08:49;;;;;;;1.23;0.70;;;;;;;20.15;40.14;96204.75;5133894;27;20573;-52
2022/01/02 09:11:17;;;;;;;1.00;0.90;;;;;;;20.16;39.64;96196.34;5133227;27;20501;-52
2022/01/02 09:13:45;;;;;;;1.30;1.30;;;;;;;20.17;39.94;96114.50;5133576;27;20458;-52
2022/01/02 09:16:14;;;;;;;1.57;1.47;;;;;;;20.40;39.06;96176.41;5132995;27;20489;-52
2022/01/02 09:18:42;;;;;;;1.27;0.63;;;;;;;20.36;39.50;96189.72;5133187;27;20419;-52
2022/01/02 09:21:11;;;;;;;4.00;0.93;;;;;;;20.81;39.79;96184.97;5132992;27;20462;-52
2022/01/02 09:23:39;;;;;;;1.60;0.93;;;;;;;21.01;38.28;96187.06;5132879;27;20523;-52
2022/01/02 09:26:09;;;;;;;2.83;1.53;;;;;;;20.30;38.72;96173.97;5133010;27;20422;-52
2022/01/02 09:28:38;;;;;;;0.73;0.73;;;;;;;20.37;38.50;96153.59;5133355;27;20418;-52
2022/01/02 09:31:06;;;;;;;2.07;0.70;;;;;;;21.23;37.38;96173.50;5132663;27;20549;-51
2022/01/02 09:33:35;;;;;;;1.80;1.70;;;;;;;21.31;37.87;96158.44;5132695;27;20419;-50
2022/01/02 09:36:03;;;;;;;0.80;0.80;;;;;;;21.42;37.19;96105.78;5132864;27;20857;-52
2022/01/02 09:38:32;;;;;;;4.40;1.70;;;;;;;21.86;38.07;96169.38;5132583;27;21005;-52
2022/01/02 09:41:00;;;;;;;3.70;0.80;;;;;;;22.32;36.88;96164.03;5132866;27;20427;-51
2022/01/02 09:43:30;;;;;;;1.30;1.20;;;;;;;22.35;36.08;96162.59;5132730;27;20515;-52
2022/01/02 09:45:59;;;;;;;2.77;2.57;;;;;;;22.31;35.96;96159.78;5132680;27;20419;-52
2022/01/02 09:48:28;;;;;;;1.20;1.00;;;;;;;22.26;36.54;96108.63;5132947;27;20414;-51
2022/01/02 09:50:57;;;;;;;0.83;0.83;;;;;;;23.60;34.16;96140.91;5132799;27;20438;-51
2022/01/02 09:53:25;;;;;;;0.70;0.70;;;;;;;;;;5132761;28;20465;-51
2022/01/02 09:55:55;;;;;;;1.13;1.03;;;;;;;23.03;34.67;96132.56;5132923;27;20432;-51
2022/01/02 09:58:25;;;;;;;0.80;0.80;;;;;;;22.77;34.99;96129.22;5133032;27;20449;-51
2022/01/02 10:00:55;;;;;;;1.43;0.90;;;;;;;23.87;33.00;96120.59;5132670;28;20553;-52
2022/01/02 10:03:23;;;;;;;0.60;0.50;;;;;;;24.41;32.10;96127.50;5132653;28;20466;-51
2022/01/02 10:05:54;;;;;;;0.80;0.60;;;;;;;23.56;33.70;96077.75;5132926;28;20491;-51
2022/01/02 10:08:24;;;;;;;1.40;1.30;;;;;;;23.59;33.71;96098.72;5132592;28;20877;-51
2022/01/02 10:11:01;;;;;;;1.47;1.40;;;;;;;22.48;34.70;96099.47;5132497;28;20461;-51
2022/01/02 10:13:42;;;;;;;1.30;1.20;;;;;;;21.66;36.59;96116.84;5132592;28;20521;-51
2022/01/02 10:16:30;;;;;;;0.87;0.87;;;;;;;22.32;36.63;96104.63;5132818;28;20860;-50
2022/01/02 10:19:01;;;;;;;4.27;0.90;;;;;;;21.89;36.15;96093.19;5132320;28;20949;-51
2022/01/02 10:21:35;;;;;;;0.90;0.80;;;;;;;21.79;37.23;96102.38;5132823;28;20505;-51
2022/01/02 10:24:16;;;;;;;0.53;0.43;;;;;;;22.32;36.77;96101.91;5132408;28;20969;-51
2022/01/02 10:27:07;;;;;;;1.43;0.70;;;;;;;21.80;37.46;96103.19;5132481;28;20422;-51
2022/01/02 10:29:51;;;;;;;0.53;0.50;;;;;;;22.27;37.63;96102.09;5132696;28;20422;-51
2022/01/02 10:32:33;;;;;;;0.77;0.77;;;;;;;22.01;37.19;96104.88;5132385;28;20506;-52
2022/01/02 10:35:21;;;;;;;0.60;0.47;;;;;;;23.60;35.23;96086.00;5132650;28;20501;-51
2022/01/02 10:37:53;;;;;;;1.00;1.00;;;;;;;23.78;35.29;96084.72;5132303;27;20803;-51
2022/01/02 10:40:30;;;;;;;1.70;1.60;;;;;;;23.06;35.36;96083.25;5132349;28;20476;-52
2022/01/02 10:43:00;;;;;;;0.80;0.80;;;;;;;23.83;34.68;96077.13;5132536;27;20453;-51
2022/01/02 10:45:33;;;;;;;1.30;1.20;;;;;;;25.21;31.82;96071.53;5136113;27;21017;-51
2022/01/02 10:48:04;;;;;;;1.77;1.67;;;;;;;25.34;32.35;96064.13;5136547;27;20411;-51
2022/01/02 10:50:35;;;;;;;1.13;1.13;;;;;;;24.92;31.95;96063.66;5136131;27;20551;-51
2022/01/02 10:53:16;;;;;;;1.47;1.13;;;;;;;24.55;31.94;96002.50;5136332;27;20510;-50
2022/01/02 10:55:46;;;;;;;0.73;0.43;;;;;;;25.65;30.59;96055.31;5136313;27;20848;-51
2022/01/02 10:58:15;;;;;;;1.57;0.53;;;;;;;25.63;32.44;96036.66;5136380;27;20418;-51
2022/01/02 11:00:44;;;;;;;5.43;1.30;;;;;;;25.71;30.90;96043.06;5135945;27;20478;-51
2022/01/02 11:03:16;;;;;;;0.90;0.60;;;;;;;26.18;30.33;96043.13;5136122;27;20434;-51
2022/01/02 11:05:48;;;;;;;0.80;0.80;;;;;;;26.62;28.81;96039.13;5135911;27;20454;-52
2022/01/02 11:08:17;;;;;;;0.80;0.80;;;;;;;27.05;29.35;96030.00;5135838;27;20422;-50
2022/01/02 11:10:48;;;;;;;0.50;0.50;;;;;;;27.94;27.18;96033.31;5135739;27;20845;-50
2022/01/02 11:13:17;;;;;;;0.60;0.40;;;;;;;28.37;26.67;96018.50;5135932;27;20488;-50
2022/01/02 11:15:46;;;;;;;0.50;0.40;;;;;;;26.21;29.30;96026.91;5135665;27;20502;-50
2022/01/02 11:18:17;;;;;;;2.50;1.30;;;;;;;26.51;29.65;96021.00;5135820;27;20427;-50
2022/01/02 11:20:45;;;;;;;0.60;0.60;;;;;;;25.75;29.53;96023.00;5135469;27;20422;-50
2022/01/02 11:23:20;;;;;;;1.90;0.67;;;;;;;26.07;29.27;96023.03;5135203;27;20466;-51
2022/01/02 11:26:01;;;;;;;0.40;0.40;;;;;;;25.81;29.82;96016.19;5135494;27;20506;-51
2022/01/02 11:28:36;;;;;;;0.40;0.40;;;;;;;26.06;29.67;95994.28;5135530;27;20497;-51
2022/01/02 11:31:05;;;;;;;0.60;0.40;;;;;;;27.17;27.27;96008.13;5135435;27;20454;-51
2022/01/02 11:33:37;;;;;;;0.73;0.60;;;;;;;26.77;27.79;96008.41;5135611;27;20406;-51
2022/01/02 11:36:24;;;;;;;0.50;0.30;;;;;;;27.67;26.87;96002.50;5135180;27;20934;-52
2022/01/02 11:39:05;;;;;;;0.37;0.30;;;;;;;27.69;26.34;96004.84;5135196;27;20942;-50
2022/01/02 11:41:38;;;;;;;0.97;0.87;;;;;;;25.54;28.34;95997.22;5135216;27;20430;-51
2022/01/02 11:44:08;;;;;;;0.77;0.77;;;;;;;25.82;28.35;95995.25;5134968;27;20973;-51
2022/01/02 11:46:46;;;;;;;1.37;1.17;;;;;;;26.18;29.50;95989.59;5134734;27;20509;-51
2022/01/02 11:49:22;;;;;;;0.50;0.50;;;;;;;26.62;28.17;95983.94;5134784;27;20418;-51
2022/01/02 11:52:13;;;;;;;1.13;0.50;;;;;;;26.64;27.73;95989.84;5135265;27;20653;-51
2022/01/02 11:54:49;;;;;;;0.50;0.50;;;;;;;25.27;27.88;95989.88;5135164;27;20454;-51